sensor_id;sensor_type;location;lat;lon;timestamp;pressure;altitude;pressure_sealevel;temperature;humidity
11888;BME280;6003;42.756;23.130;2022-10-22T00:02:20;154221.84;;;7.04;99.39
11888;BME280;6003;42.756;23.130;2022-10-22T00:04:48;154220.53;;;7.04;100.00
11888;BME280;6003;42.756;23.130;2022-10-22T00:07:16;154203.44;;;6.97;100.00
11888;BME280;6003;42.756;23.130;2022-10-22T00:09:44;154228.44;;;7.07;100.00
11888;BME280;6003;42.756;23.130;2022-10-22T00:12:13;154216.63;;;7.02;100.00
11888;BME280;6003;42.756;23.130;2022-10-22T00:14:41;154224.53;;;7.05;100.00
11888;BME280;6003;42.756;23.130;2022-10-22T00:17:08;154213.94;;;7.01;100.00
11888;BME280;6003;42.756;23.130;2022-10-22T00:19:37;154219.25;;;7.03;99.84
11888;BME280;6003;42.756;23.130;2022-10-22T00:22:04;154206.03;;;6.98;99.54
11888;BME280;6003;42.756;23.130;2022-10-22T00:24:32;154179.72;;;6.88;98.98
11888;BME280;6003;42.756;23.130;2022-10-22T00:26:59;154183.63;;;6.89;99.03
11888;BME280;6003;42.756;23.130;2022-10-22T00:29:26;154179.72;;;6.88;98.86
11888;BME280;6003;42.756;23.130;2022-10-22T00:31:53;154173.13;;;6.85;99.32
11888;BME280;6003;42.756;23.130;2022-10-22T00:34:21;154182.34;;;6.89;99.80
11888;BME280;6003;42.756;23.130;2022-10-22T00:36:50;154166.53;;;6.83;100.00
11888;BME280;6003;42.756;23.130;2022-10-22T00:39:20;154137.53;;;6.71;100.00
11888;BME280;6003;42.756;23.130;2022-10-22T00:41:50;154174.44;;;6.86;100.00
11888;BME280;6003;42.756;23.130;2022-10-22T00:47:18;154158.63;;;6.80;100.00
11888;BME280;6003;42.756;23.130;2022-10-22T00:49:45;154165.22;;;6.82;100.00
11888;BME280;6003;42.756;23.130;2022-10-22T00:52:14;154166.53;;;6.83;100.00
11888;BME280;6003;42.756;23.130;2022-10-22T00:54:42;154153.34;;;6.77;99.65
11888;BME280;6003;42.756;23.130;2022-10-22T00:57:09;154153.34;;;6.77;99.24
11888;BME280;6003;42.756;23.130;2022-10-22T00:59:36;154136.22;;;6.71;99.21
11888;BME280;6003;42.756;23.130;2022-10-22T01:02:04;154129.63;;;6.68;98.96
11888;BME280;6003;42.756;23.130;2022-10-22T01:04:30;154121.72;;;6.65;98.96
11888;BME280;6003;42.756;23.130;2022-10-22T01:06:57;154116.44;;;6.63;99.02
11888;BME280;6003;42.756;23.130;2022-10-22T01:09:30;154098.03;;;6.56;98.74
11888;BME280;6003;42.756;23.130;2022-10-22T01:12:05;154096.66;;;6.55;98.40
11888;BME280;6003;42.756;23.130;2022-10-22T01:14:42;154090.06;;;6.53;98.56
11888;BME280;6003;42.756;23.130;2022-10-22T01:17:17;154090.06;;;6.53;98.55
11888;BME280;6003;42.756;23.130;2022-10-22T01:19:58;154067.66;;;6.44;99.06
11888;BME280;6003;42.756;23.130;2022-10-22T01:22:35;154094.03;;;6.54;99.87
11888;BME280;6003;42.756;23.130;2022-10-22T01:25:11;154074.25;;;6.47;99.93
11888;BME280;6003;42.756;23.130;2022-10-22T01:27:50;154008.41;;;6.21;99.43
11888;BME280;6003;42.756;23.130;2022-10-22T01:30:40;154065.06;;;6.43;100.00
11888;BME280;6003;42.756;23.130;2022-10-22T01:33:12;154050.56;;;6.38;99.69
11888;BME280;6003;42.756;23.130;2022-10-22T01:35:42;154025.56;;;6.28;100.00
11888;BME280;6003;42.756;23.130;2022-10-22T01:38:14;154013.69;;;6.23;100.00
11888;BME280;6003;42.756;23.130;2022-10-22T01:40:42;154040.03;;;6.33;100.00
11888;BME280;6003;42.756;23.130;2022-10-22T01:43:10;154046.63;;;6.36;100.00
11888;BME280;6003;42.756;23.130;2022-10-22T01:45:41;154003.16;;;6.19;100.00
11888;BME280;6003;42.756;23.130;2022-10-22T01:48:25;154047.94;;;6.37;100.00
11888;BME280;6003;42.756;23.130;2022-10-22T01:51:08;154054.53;;;6.39;100.00
11888;BME280;6003;42.756;23.130;2022-10-22T01:53:43;154034.75;;;6.31;100.00
11888;BME280;6003;42.756;23.130;2022-10-22T01:56:30;154034.75;;;6.31;100.00
11888;BME280;6003;42.756;23.130;2022-10-22T01:59:06;154034.75;;;6.31;100.00
11888;BME280;6003;42.756;23.130;2022-10-22T02:01:41;154020.25;;;6.26;99.76
11888;BME280;6003;42.756;23.130;2022-10-22T02:04:17;154003.16;;;6.19;99.56
11888;BME280;6003;42.756;23.130;2022-10-22T02:06:46;153987.38;;;6.13;99.16
11888;BME280;6003;42.756;23.130;2022-10-22T02:09:16;153987.38;;;6.13;99.02
11888;BME280;6003;42.756;23.130;2022-10-22T02:11:46;153979.47;;;6.10;98.61
11888;BME280;6003;42.756;23.130;2022-10-22T02:14:15;153950.47;;;5.99;98.51
11888;BME280;6003;42.756;23.130;2022-10-22T02:16:47;153947.81;;;5.98;99.41
11888;BME280;6003;42.756;23.130;2022-10-22T02:19:21;153951.78;;;5.99;99.92
11888;BME280;6003;42.756;23.130;2022-10-22T02:21:50;153937.31;;;5.94;100.00
11888;BME280;6003;42.756;23.130;2022-10-22T02:24:18;153939.91;;;5.95;100.00
11888;BME280;6003;42.756;23.130;2022-10-22T02:26:51;153958.38;;;6.02;100.00
11888;BME280;6003;42.756;23.130;2022-10-22T02:32:38;153968.91;;;6.06;100.00
11888;BME280;6003;42.756;23.130;2022-10-22T02:35:09;153982.06;;;6.11;100.00
11888;BME280;6003;42.756;23.130;2022-10-22T02:37:37;153979.47;;;6.10;100.00
11888;BME280;6003;42.756;23.130;2022-10-22T02:40:06;153968.91;;;6.06;100.00
11888;BME280;6003;42.756;23.130;2022-10-22T02:42:34;153974.19;;;6.08;100.00
11888;BME280;6003;42.756;23.130;2022-10-22T02:45:01;153966.28;;;6.05;100.00
11888;BME280;6003;42.756;23.130;2022-10-22T02:47:29;153993.91;;;6.16;100.00
11888;BME280;6003;42.756;23.130;2022-10-22T02:49:57;154000.50;;;6.18;100.00
11888;BME280;6003;42.756;23.130;2022-10-22T02:52:24;153995.25;;;6.16;100.00
11888;BME280;6003;42.756;23.130;2022-10-22T02:54:51;153936.00;;;5.93;100.00
11888;BME280;6003;42.756;23.130;2022-10-22T02:57:18;153989.97;;;6.14;100.00
11888;BME280;6003;42.756;23.130;2022-10-22T02:59:45;153987.38;;;6.13;100.00
11888;BME280;6003;42.756;23.130;2022-10-22T03:02:12;153984.69;;;6.12;100.00
11888;BME280;6003;42.756;23.130;2022-10-22T03:04:39;153972.88;;;6.07;100.00
11888;BME280;6003;42.756;23.130;2022-10-22T03:07:07;153970.22;;;6.06;100.00
11888;BME280;6003;42.756;23.130;2022-10-22T03:09:35;153966.28;;;6.05;99.75
11888;BME280;6003;42.756;23.130;2022-10-22T03:12:02;153950.47;;;5.99;100.00
11888;BME280;6003;42.756;23.130;2022-10-22T03:14:29;153945.19;;;5.97;99.86
11888;BME280;6003;42.756;23.130;2022-10-22T03:16:55;153924.06;;;5.88;99.58
11888;BME280;6003;42.756;23.130;2022-10-22T03:19:22;153945.19;;;5.97;99.85
11888;BME280;6003;42.756;23.130;2022-10-22T03:21:52;153938.63;;;5.94;99.35
11888;BME280;6003;42.756;23.130;2022-10-22T03:24:24;153947.81;;;5.98;99.96
11888;BME280;6003;42.756;23.130;2022-10-22T03:26:53;153946.50;;;5.97;100.00
11888;BME280;6003;42.756;23.130;2022-10-22T03:29:21;153942.59;;;5.96;100.00
11888;BME280;6003;42.756;23.130;2022-10-22T03:31:49;153939.91;;;5.95;100.00
11888;BME280;6003;42.756;23.130;2022-10-22T03:34:16;153945.19;;;5.97;100.00
11888;BME280;6003;42.756;23.130;2022-10-22T03:36:43;153942.59;;;5.96;100.00
11888;BME280;6003;42.756;23.130;2022-10-22T03:39:12;153959.69;;;6.02;100.00
11888;BME280;6003;42.756;23.130;2022-10-22T03:41:42;153996.56;;;6.17;100.00
11888;BME280;6003;42.756;23.130;2022-10-22T03:44:09;153987.38;;;6.13;100.00
11888;BME280;6003;42.756;23.130;2022-10-22T03:46:37;154029.47;;;6.29;100.00
11888;BME280;6003;42.756;23.130;2022-10-22T03:49:04;154047.94;;;6.37;100.00
11888;BME280;6003;42.756;23.130;2022-10-22T03:51:30;154061.13;;;6.42;100.00
11888;BME280;6003;42.756;23.130;2022-10-22T03:53:57;154071.66;;;6.46;100.00
11888;BME280;6003;42.756;23.130;2022-10-22T03:56:24;154087.44;;;6.52;100.00
11888;BME280;6003;42.756;23.130;2022-10-22T03:58:54;154087.44;;;6.52;100.00
11888;BME280;6003;42.756;23.130;2022-10-22T04:01:22;154082.16;;;6.50;100.00
11888;BME280;6003;42.756;23.130;2022-10-22T04:03:49;154112.47;;;6.62;100.00
11888;BME280;6003;42.756;23.130;2022-10-22T04:06:16;154140.16;;;6.72;100.00
11888;BME280;6003;42.756;23.130;2022-10-22T04:08:44;154155.94;;;6.78;100.00
11888;BME280;6003;42.756;23.130;2022-10-22T04:11:12;154107.22;;;6.60;100.00
11888;BME280;6003;42.756;23.130;2022-10-22T04:13:40;154157.31;;;6.79;100.00
11888;BME280;6003;42.756;23.130;2022-10-22T04:16:10;154171.75;;;6.85;100.00
11888;BME280;6003;42.756;23.130;2022-10-22T04:18:38;154190.22;;;6.92;100.00
11888;BME280;6003;42.756;23.130;2022-10-22T04:21:07;154195.53;;;6.94;100.00
11888;BME280;6003;42.756;23.130;2022-10-22T04:23:34;154182.34;;;6.89;100.00
11888;BME280;6003;42.756;23.130;2022-10-22T04:26:04;154198.13;;;6.95;100.00
11888;BME280;6003;42.756;23.130;2022-10-22T04:28:32;154191.53;;;6.92;100.00
11888;BME280;6003;42.756;23.130;2022-10-22T04:30:59;154192.84;;;6.93;100.00
11888;BME280;6003;42.756;23.130;2022-10-22T04:33:27;154198.13;;;6.95;100.00
11888;BME280;6003;42.756;23.130;2022-10-22T04:35:54;154194.22;;;6.93;100.00
11888;BME280;6003;42.756;23.130;2022-10-22T04:38:21;154208.66;;;6.99;100.00
11888;BME280;6003;42.756;23.130;2022-10-22T04:40:48;154211.34;;;7.00;100.00
11888;BME280;6003;42.756;23.130;2022-10-22T04:43:15;154210.03;;;6.99;100.00
11888;BME280;6003;42.756;23.130;2022-10-22T04:45:42;154211.34;;;7.00;100.00
11888;BME280;6003;42.756;23.130;2022-10-22T04:48:09;154208.66;;;6.99;100.00
11888;BME280;6003;42.756;23.130;2022-10-22T04:50:37;154204.72;;;6.97;100.00
11888;BME280;6003;42.756;23.130;2022-10-22T04:53:04;154219.25;;;7.03;100.00
11888;BME280;6003;42.756;23.130;2022-10-22T04:55:31;154221.84;;;7.04;100.00
11888;BME280;6003;42.756;23.130;2022-10-22T04:57:57;154184.94;;;6.90;100.00
11888;BME280;6003;42.756;23.130;2022-10-22T05:00:26;154184.94;;;6.90;99.65
11888;BME280;6003;42.756;23.130;2022-10-22T05:02:53;154169.13;;;6.84;100.00
11888;BME280;6003;42.756;23.130;2022-10-22T05:05:20;154173.13;;;6.85;99.54
11888;BME280;6003;42.756;23.130;2022-10-22T05:07:49;154150.72;;;6.76;99.41
11888;BME280;6003;42.756;23.130;2022-10-22T05:10:25;154171.75;;;6.85;99.84
11888;BME280;6003;42.756;23.130;2022-10-22T05:12:53;154163.84;;;6.82;99.35
11888;BME280;6003;42.756;23.130;2022-10-22T05:15:20;154158.63;;;6.80;98.31
11888;BME280;6003;42.756;23.130;2022-10-22T05:17:47;154153.34;;;6.77;98.00
11888;BME280;6003;42.756;23.130;2022-10-22T05:20:14;154116.44;;;6.63;98.02
11888;BME280;6003;42.756;23.130;2022-10-22T05:22:41;154112.47;;;6.62;98.11
11888;BME280;6003;42.756;23.130;2022-10-22T05:25:10;154038.72;;;6.33;98.38
11888;BME280;6003;42.756;23.130;2022-10-22T05:27:37;154105.91;;;6.59;97.37
11888;BME280;6003;42.756;23.130;2022-10-22T05:30:05;154105.91;;;6.59;97.75
11888;BME280;6003;42.756;23.130;2022-10-22T05:32:33;154096.66;;;6.55;96.96
11888;BME280;6003;42.756;23.130;2022-10-22T05:35:00;154079.53;;;6.49;97.09
11888;BME280;6003;42.756;23.130;2022-10-22T05:37:30;154058.47;;;6.41;97.96
11888;BME280;6003;42.756;23.130;2022-10-22T05:39:57;154063.75;;;6.43;98.01
11888;BME280;6003;42.756;23.130;2022-10-22T05:42:25;154105.91;;;6.59;98.65
11888;BME280;6003;42.756;23.130;2022-10-22T05:44:56;154119.06;;;6.64;99.53
11888;BME280;6003;42.756;23.130;2022-10-22T05:47:23;154154.66;;;6.78;99.21
11888;BME280;6003;42.756;23.130;2022-10-22T05:49:51;154191.53;;;6.92;99.67
11888;BME280;6003;42.756;23.130;2022-10-22T05:52:18;154221.84;;;7.04;99.92
11888;BME280;6003;42.756;23.130;2022-10-22T05:54:45;154257.44;;;7.18;98.99
11888;BME280;6003;42.756;23.130;2022-10-22T05:57:11;154295.69;;;7.33;99.08
11888;BME280;6003;42.756;23.130;2022-10-22T05:59:40;154340.50;;;7.50;100.00
11888;BME280;6003;42.756;23.130;2022-10-22T06:02:07;154349.72;;;7.54;99.67
11888;BME280;6003;42.756;23.130;2022-10-22T06:04:35;154464.47;;;7.98;99.58
11888;BME280;6003;42.756;23.130;2022-10-22T06:07:02;154535.75;;;8.26;100.00
11888;BME280;6003;42.756;23.130;2022-10-22T06:09:30;154596.47;;;8.49;99.37
11888;BME280;6003;42.756;23.130;2022-10-22T06:11:58;154653.19;;;8.71;97.86
11888;BME280;6003;42.756;23.130;2022-10-22T06:14:26;154704.66;;;8.91;97.27
11888;BME280;6003;42.756;23.130;2022-10-22T06:16:54;154749.56;;;9.09;96.13
11888;BME280;6003;42.756;23.130;2022-10-22T06:22:46;154801.06;;;9.29;94.70
11888;BME280;6003;42.756;23.130;2022-10-22T06:25:14;154830.09;;;9.40;94.65
11888;BME280;6003;42.756;23.130;2022-10-22T06:27:41;154886.91;;;9.62;94.01
11888;BME280;6003;42.756;23.130;2022-10-22T06:30:08;154897.47;;;9.66;93.06
11888;BME280;6003;42.756;23.130;2022-10-22T06:32:37;154893.53;;;9.64;92.38
11888;BME280;6003;42.756;23.130;2022-10-22T06:35:06;154908.06;;;9.70;92.72
11888;BME280;6003;42.756;23.130;2022-10-22T06:37:33;154946.34;;;9.85;92.11
11888;BME280;6003;42.756;23.130;2022-10-22T06:40:00;154942.38;;;9.83;91.43
11888;BME280;6003;42.756;23.130;2022-10-22T06:42:27;154989.97;;;10.02;91.32
11888;BME280;6003;42.756;23.130;2022-10-22T06:44:54;155004.50;;;10.07;89.82
11888;BME280;6003;42.756;23.130;2022-10-22T06:47:21;155032.22;;;10.18;89.14
11888;BME280;6003;42.756;23.130;2022-10-22T06:49:50;155075.88;;;10.35;89.09
11888;BME280;6003;42.756;23.130;2022-10-22T06:52:17;155099.66;;;10.44;88.92
11888;BME280;6003;42.756;23.130;2022-10-22T06:54:44;155130.09;;;10.56;87.98
11888;BME280;6003;42.756;23.130;2022-10-22T06:57:11;155074.56;;;10.34;86.52
11888;BME280;6003;42.756;23.130;2022-10-22T06:59:38;155116.88;;;10.51;87.02
11888;BME280;6003;42.756;23.130;2022-10-22T07:02:05;155103.66;;;10.46;87.60
11888;BME280;6003;42.756;23.130;2022-10-22T07:04:32;155114.19;;;10.50;86.42
11888;BME280;6003;42.756;23.130;2022-10-22T07:07:00;155135.34;;;10.58;86.51
11888;BME280;6003;42.756;23.130;2022-10-22T07:09:27;155159.13;;;10.67;86.43
11888;BME280;6003;42.756;23.130;2022-10-22T07:11:55;155177.66;;;10.74;87.35
11888;BME280;6003;42.756;23.130;2022-10-22T07:14:21;155200.13;;;10.83;87.60
11888;BME280;6003;42.756;23.130;2022-10-22T07:16:48;155251.72;;;11.03;87.19
11888;BME280;6003;42.756;23.130;2022-10-22T07:19:16;155307.22;;;11.24;85.65
11888;BME280;6003;42.756;23.130;2022-10-22T07:21:43;155348.25;;;11.40;85.40
11888;BME280;6003;42.756;23.130;2022-10-22T07:24:12;155327.06;;;11.32;84.27
11888;BME280;6003;42.756;23.130;2022-10-22T07:26:39;155346.94;;;11.40;83.39
11888;BME280;6003;42.756;23.130;2022-10-22T07:29:06;155381.28;;;11.53;83.05
11888;BME280;6003;42.756;23.130;2022-10-22T07:31:34;155341.63;;;11.38;83.21
11888;BME280;6003;42.756;23.130;2022-10-22T07:34:01;155317.84;;;11.28;83.12
11888;BME280;6003;42.756;23.130;2022-10-22T07:36:28;155309.91;;;11.25;82.98
11888;BME280;6003;42.756;23.130;2022-10-22T07:38:56;155406.47;;;11.63;84.05
11888;BME280;6003;42.756;23.130;2022-10-22T07:41:25;155462.00;;;11.84;82.92
11888;BME280;6003;42.756;23.130;2022-10-22T07:43:52;155488.53;;;11.94;80.48
11888;BME280;6003;42.756;23.130;2022-10-22T07:46:19;155546.78;;;12.17;81.24
11888;BME280;6003;42.756;23.130;2022-10-22T07:48:47;155594.41;;;12.35;79.84
11888;BME280;6003;42.756;23.130;2022-10-22T07:51:14;155558.66;;;12.22;78.61
11888;BME280;6003;42.756;23.130;2022-10-22T07:53:41;155646.03;;;12.55;79.13
11888;BME280;6003;42.756;23.130;2022-10-22T07:56:08;155704.28;;;12.78;77.49
11888;BME280;6003;42.756;23.130;2022-10-22T07:58:36;155737.38;;;12.91;76.67
11888;BME280;6003;42.756;23.130;2022-10-22T08:01:04;155741.38;;;12.92;77.72
11888;BME280;6003;42.756;23.130;2022-10-22T08:03:31;155806.22;;;13.17;77.79
11888;BME280;6003;42.756;23.130;2022-10-22T08:05:59;155838.09;;;13.29;76.88
11888;BME280;6003;42.756;23.130;2022-10-22T08:08:26;155836.72;;;13.29;75.78
11888;BME280;6003;42.756;23.130;2022-10-22T08:10:56;155865.88;;;13.40;76.00
11888;BME280;6003;42.756;23.130;2022-10-22T08:13:24;155887.09;;;13.48;74.99
11888;BME280;6003;42.756;23.130;2022-10-22T08:15:53;155879.13;;;13.45;75.57
11888;BME280;6003;42.756;23.130;2022-10-22T08:18:24;155908.28;;;13.57;74.58
11888;BME280;6003;42.756;23.130;2022-10-22T08:20:52;155904.28;;;13.55;74.69
11888;BME280;6003;42.756;23.130;2022-10-22T08:23:19;155918.88;;;13.61;75.77
11888;BME280;6003;42.756;23.130;2022-10-22T08:25:46;155888.41;;;13.49;75.23
11888;BME280;6003;42.756;23.130;2022-10-22T08:28:14;155987.81;;;13.87;76.20
11888;BME280;6003;42.756;23.130;2022-10-22T08:30:41;156024.91;;;14.02;74.50
11888;BME280;6003;42.756;23.130;2022-10-22T08:33:10;156009.03;;;13.95;73.19
11888;BME280;6003;42.756;23.130;2022-10-22T08:35:37;156024.91;;;14.02;73.37
11888;BME280;6003;42.756;23.130;2022-10-22T08:38:04;156040.81;;;14.08;73.71
11888;BME280;6003;42.756;23.130;2022-10-22T08:40:33;156079.25;;;14.22;75.23
11888;BME280;6003;42.756;23.130;2022-10-22T08:43:21;156113.72;;;14.36;76.94
11888;BME280;6003;42.756;23.130;2022-10-22T08:45:59;156162.81;;;14.55;72.79
11888;BME280;6003;42.756;23.130;2022-10-22T08:48:40;156207.88;;;14.72;71.42
11888;BME280;6003;42.756;23.130;2022-10-22T08:51:12;156275.50;;;14.98;72.69
11888;BME280;6003;42.756;23.130;2022-10-22T08:53:48;156280.81;;;15.00;70.57
11888;BME280;6003;42.756;23.130;2022-10-22T08:56:17;156290.09;;;15.04;71.52
11888;BME280;6003;42.756;23.130;2022-10-22T08:58:48;156343.16;;;15.24;71.36
11888;BME280;6003;42.756;23.130;2022-10-22T09:01:20;156388.25;;;15.42;72.18
11888;BME280;6003;42.756;23.130;2022-10-22T09:03:52;156412.19;;;15.51;69.52
11888;BME280;6003;42.756;23.130;2022-10-22T09:06:23;156457.34;;;15.68;70.65
11888;BME280;6003;42.756;23.130;2022-10-22T09:08:51;156457.34;;;15.68;68.35
11888;BME280;6003;42.756;23.130;2022-10-22T09:11:25;156450.66;;;15.66;68.91
11888;BME280;6003;42.756;23.130;2022-10-22T09:13:54;156449.31;;;15.65;68.26
11888;BME280;6003;42.756;23.130;2022-10-22T09:16:29;156489.16;;;15.81;69.23
11888;BME280;6003;42.756;23.130;2022-10-22T09:19:06;156528.97;;;15.96;68.47
11888;BME280;6003;42.756;23.130;2022-10-22T09:21:45;156515.69;;;15.91;67.48
11888;BME280;6003;42.756;23.130;2022-10-22T09:24:29;156530.28;;;15.96;67.63
11888;BME280;6003;42.756;23.130;2022-10-22T09:26:57;156507.72;;;15.88;67.12
11888;BME280;6003;42.756;23.130;2022-10-22T09:29:31;156542.25;;;16.01;70.93
11888;BME280;6003;42.756;23.130;2022-10-22T09:31:58;156678.97;;;16.54;71.06
11888;BME280;6003;42.756;23.130;2022-10-22T09:34:27;156850.34;;;17.20;68.49
11888;BME280;6003;42.756;23.130;2022-10-22T09:36:58;156932.72;;;17.51;64.17
11888;BME280;6003;42.756;23.130;2022-10-22T09:39:28;156963.28;;;17.63;64.11
11888;BME280;6003;42.756;23.130;2022-10-22T09:41:57;156997.84;;;17.76;65.01
11888;BME280;6003;42.756;23.130;2022-10-22T09:44:24;156993.84;;;17.75;63.25
11888;BME280;6003;42.756;23.130;2022-10-22T09:46:51;156876.94;;;17.30;64.56
11888;BME280;6003;42.756;23.130;2022-10-22T09:49:21;156908.81;;;17.42;65.47
11888;BME280;6003;42.756;23.130;2022-10-22T09:51:53;156902.16;;;17.40;64.40
11888;BME280;6003;42.756;23.130;2022-10-22T09:54:22;156888.88;;;17.34;64.90
11888;BME280;6003;42.756;23.130;2022-10-22T09:56:52;156883.59;;;17.32;66.73
11888;BME280;6003;42.756;23.130;2022-10-22T09:59:27;156882.22;;;17.32;65.36
11888;BME280;6003;42.756;23.130;2022-10-22T10:01:59;156851.66;;;17.20;64.41
11888;BME280;6003;42.756;23.130;2022-10-22T10:04:27;156904.84;;;17.41;66.15
11888;BME280;6003;42.756;23.130;2022-10-22T10:06:55;156863.66;;;17.25;65.02
11888;BME280;6003;42.756;23.130;2022-10-22T10:09:37;156829.09;;;17.11;65.47
11888;BME280;6003;42.756;23.130;2022-10-22T10:12:08;156863.66;;;17.25;65.71
11888;BME280;6003;42.756;23.130;2022-10-22T10:14:42;156895.53;;;17.37;65.52
11888;BME280;6003;42.756;23.130;2022-10-22T10:17:17;156940.69;;;17.54;65.26
11888;BME280;6003;42.756;23.130;2022-10-22T10:19:56;157020.50;;;17.85;64.94
11888;BME280;6003;42.756;23.130;2022-10-22T10:22:43;157076.28;;;18.07;64.91
11888;BME280;6003;42.756;23.130;2022-10-22T10:25:41;157153.44;;;18.36;62.46
11888;BME280;6003;42.756;23.130;2022-10-22T10:28:27;157092.28;;;18.13;61.99
11888;BME280;6003;42.756;23.130;2022-10-22T10:31:06;157023.13;;;17.86;61.78
11888;BME280;6003;42.756;23.130;2022-10-22T10:33:46;157090.91;;;18.12;62.29
11888;BME280;6003;42.756;23.130;2022-10-22T10:36:24;157140.13;;;18.31;65.22
11888;BME280;6003;42.756;23.130;2022-10-22T10:39:00;157180.00;;;18.46;61.58
11888;BME280;6003;42.756;23.130;2022-10-22T10:41:37;157190.66;;;18.51;62.29
11888;BME280;6003;42.756;23.130;2022-10-22T10:44:34;157219.91;;;18.62;61.39
11888;BME280;6003;42.756;23.130;2022-10-22T10:47:14;157221.25;;;18.62;61.17
11888;BME280;6003;42.756;23.130;2022-10-22T10:49:45;157233.19;;;18.67;61.32
11888;BME280;6003;42.756;23.130;2022-10-22T10:52:17;157267.81;;;18.80;60.53
11888;BME280;6003;42.756;23.130;2022-10-22T10:54:55;157137.50;;;18.30;61.49
11888;BME280;6003;42.756;23.130;2022-10-22T10:57:37;157137.50;;;18.30;61.92
11888;BME280;6003;42.756;23.130;2022-10-22T11:00:09;157086.97;;;18.11;62.02
11888;BME280;6003;42.756;23.130;2022-10-22T11:03:04;157145.47;;;18.33;62.57
11888;BME280;6003;42.756;23.130;2022-10-22T11:05:39;157169.38;;;18.42;61.15
11888;BME280;6003;42.756;23.130;2022-10-22T11:08:13;157227.91;;;18.65;60.64
11888;BME280;6003;42.756;23.130;2022-10-22T11:10:46;157227.91;;;18.65;60.29
11888;BME280;6003;42.756;23.130;2022-10-22T11:13:20;157253.19;;;18.75;60.47
11888;BME280;6003;42.756;23.130;2022-10-22T11:15:54;157262.50;;;18.78;60.31
11888;BME280;6003;42.756;23.130;2022-10-22T11:18:41;157318.38;;;19.00;60.03
11888;BME280;6003;42.756;23.130;2022-10-22T11:21:16;157334.34;;;19.06;61.36
11888;BME280;6003;42.756;23.130;2022-10-22T11:23:48;157333.00;;;19.05;59.46
11888;BME280;6003;42.756;23.130;2022-10-22T11:26:27;157315.69;;;18.99;59.29
11888;BME280;6003;42.756;23.130;2022-10-22T11:28:57;157261.16;;;18.78;59.14
11888;BME280;6003;42.756;23.130;2022-10-22T11:31:26;157278.44;;;18.84;59.42
11888;BME280;6003;42.756;23.130;2022-10-22T11:34:00;157287.78;;;18.88;60.89
11888;BME280;6003;42.756;23.130;2022-10-22T11:36:31;157297.09;;;18.91;60.68
11888;BME280;6003;42.756;23.130;2022-10-22T11:39:01;157363.59;;;19.17;58.46
11888;BME280;6003;42.756;23.130;2022-10-22T11:41:32;157362.28;;;19.16;57.58
11888;BME280;6003;42.756;23.130;2022-10-22T11:44:11;157344.97;;;19.10;58.76
11888;BME280;6003;42.756;23.130;2022-10-22T11:46:54;157379.56;;;19.23;58.19
11888;BME280;6003;42.756;23.130;2022-10-22T11:49:24;157363.59;;;19.17;58.12
11888;BME280;6003;42.756;23.130;2022-10-22T11:52:05;157382.19;;;19.24;58.42
11888;BME280;6003;42.756;23.130;2022-10-22T11:54:53;157403.50;;;19.32;58.32
11888;BME280;6003;42.756;23.130;2022-10-22T11:57:26;157391.56;;;19.28;58.31
11888;BME280;6003;42.756;23.130;2022-10-22T11:59:57;157395.50;;;19.29;57.12
11888;BME280;6003;42.756;23.130;2022-10-22T12:02:40;157399.53;;;19.31;56.64
11888;BME280;6003;42.756;23.130;2022-10-22T12:05:34;157395.50;;;19.29;56.93
11888;BME280;6003;42.756;23.130;2022-10-22T12:08:13;157400.84;;;19.31;56.83
11888;BME280;6003;42.756;23.130;2022-10-22T12:14:00;157430.13;;;19.43;57.09
11888;BME280;6003;42.756;23.130;2022-10-22T12:16:34;157432.78;;;19.44;56.70
11888;BME280;6003;42.756;23.130;2022-10-22T12:19:06;157323.66;;;19.02;56.47
11888;BME280;6003;42.756;23.130;2022-10-22T12:21:40;157362.28;;;19.16;56.62
11888;BME280;6003;42.756;23.130;2022-10-22T12:24:12;157358.25;;;19.15;56.98
11888;BME280;6003;42.756;23.130;2022-10-22T12:26:40;157384.91;;;19.25;56.83
11888;BME280;6003;42.756;23.130;2022-10-22T12:29:12;157391.56;;;19.28;56.61
11888;BME280;6003;42.756;23.130;2022-10-22T12:31:41;157404.81;;;19.33;56.14
11888;BME280;6003;42.756;23.130;2022-10-22T12:34:12;157430.13;;;19.43;56.04
11888;BME280;6003;42.756;23.130;2022-10-22T12:36:42;157438.09;;;19.46;57.17
11888;BME280;6003;42.756;23.130;2022-10-22T12:39:13;157427.44;;;19.42;56.81
11888;BME280;6003;42.756;23.130;2022-10-22T12:41:40;157384.91;;;19.25;55.88
11888;BME280;6003;42.756;23.130;2022-10-22T12:44:11;157420.78;;;19.39;56.40
11888;BME280;6003;42.756;23.130;2022-10-22T12:46:40;157411.47;;;19.35;56.50
11888;BME280;6003;42.756;23.130;2022-10-22T12:49:14;157426.13;;;19.41;56.47
11888;BME280;6003;42.756;23.130;2022-10-22T12:51:43;157396.84;;;19.30;56.18
11888;BME280;6003;42.756;23.130;2022-10-22T12:54:22;157443.41;;;19.48;56.23
11888;BME280;6003;42.756;23.130;2022-10-22T12:56:50;157459.41;;;19.54;56.56
11888;BME280;6003;42.756;23.130;2022-10-22T12:59:22;157476.69;;;19.60;55.91
11888;BME280;6003;42.756;23.130;2022-10-22T13:01:51;157456.72;;;19.53;56.74
11888;BME280;6003;42.756;23.130;2022-10-22T13:04:27;157460.72;;;19.54;55.54
11888;BME280;6003;42.756;23.130;2022-10-22T13:07:05;157486.00;;;19.64;55.25
11888;BME280;6003;42.756;23.130;2022-10-22T13:09:40;157480.66;;;19.62;55.57
11888;BME280;6003;42.756;23.130;2022-10-22T13:12:09;157463.38;;;19.55;55.16
11888;BME280;6003;42.756;23.130;2022-10-22T13:14:43;157434.09;;;19.44;55.32
11888;BME280;6003;42.756;23.130;2022-10-22T13:17:12;157406.19;;;19.33;55.75
11888;BME280;6003;42.756;23.130;2022-10-22T13:19:44;157406.19;;;19.33;55.65
11888;BME280;6003;42.756;23.130;2022-10-22T13:22:36;157403.50;;;19.32;56.48
11888;BME280;6003;42.756;23.130;2022-10-22T13:25:20;157430.13;;;19.43;56.31